Terminal Aerodrome Forecast
Issued by NWS Pueblo, CO

Home | Current Version | Previous Version | Text Only | Print | Product List | Glossary On
Versions: 1 2 3 4 5 6 7 8 9 10 11 12 13 14 15 16 17 18 19 20 21 22 23 24 25 26 27 28 29 30 31 32 33 34 35 36 37 38 39 40 41 42 43
613
FTUS45 KPUB 291255 AAB
TAFPUB
TAF AMD
KPUB 291255Z 2913/3012 03015KT 3SM -SN BKN015
      TEMPO 2913/2915 1SM -SN BR OVC001
     FM291500 01015G25KT 1SM -SN BR SCT005 OVC010
     FM291800 01020G30KT 3SM -SN SCT015 OVC030
      TEMPO 2918/2921 2SM -SN BKN015
     FM300200 36020G30KT P6SM BKN050
     FM300800 34015G30KT P6SM BKN080=

USA.gov is the U.S. government's official web portal to all federal, state and local government web resources and services.